Portada
METAR-TAF:

METAR-TAF

Aeroports :

Illa Christmas, Austràlia

latitud: 10-26S, longitud: 105-41E, altitud: 279 m

Observació

L'informe es va fer fa 41 minuts, a les 17:30 UTC
Vent 4 kt del Sud/Sud-Oest
Temperatura 25°C
Humitat 89%
Pressió 1012 hPa
Visibilitat 10 km o més
Núvols disperses a una alçada de 3500 ft
Núvols disperses a una alçada de 4100 ft
Cel cobert a una alçada de 5000 ft

METAR: YPXM 221730Z AUTO 21004KT 9999 // SCT035 SCT041 OVC050 25/23 Q1012

Hora: 01:11 (18:11 UTC)

Pronòstic

L'informe es va fer fa 29 minuts, a les 17:42 UTC
Pronòstic vàlid del 22 a les 18 UTC al 23 a les 18 UTC
Vent 5 kt del Sud/Sud-Oest
Visibilitat: 4000 m
Núvols disperses a una alçada de 3000 ft
Cel ennuvolat a una alçada de 4000 ft
Cel ennuvolat a una alçada de 1400 ft
xàfecs de pluja, xàfecs de pluja

TAF: YPXM 221742Z 2218/2318 20005KT 9999 -SHRA SCT030 BKN040 INTER 2218/2318 4000 SHRA BKN014

Observacions i pronòstics meteorològics de més de 4000 aeroports (METAR i TAF).

Les estacions disponibles són els punts grocs i vermells al mapa.

Posi el ratolí al punt desitjat per veure el nom de l'estació.

Feu clic per veure les observacions i els pronòstics meteorològics.

Per canviar el mapa: feu clic els botons verds amb una creu de color negre per apropar; al botó verd amb un guió per allunyar la imatge; o en les fletxes verdes per a mapes adjacents.


METAR-TAF: